sensor_id;sensor_type;location;lat;lon;timestamp;P1;durP1;ratioP1;P2;durP2;ratioP2
46334;SDS011;32051;48.882;9.210;2023-05-07T00:00:39;4.72;;;1.90;;
46334;SDS011;32051;48.882;9.210;2023-05-07T00:03:05;4.78;;;2.00;;
46334;SDS011;32051;48.882;9.210;2023-05-07T00:05:31;4.88;;;2.00;;
46334;SDS011;32051;48.882;9.210;2023-05-07T00:07:58;6.00;;;2.17;;
46334;SDS011;32051;48.882;9.210;2023-05-07T00:10:24;3.53;;;2.38;;
46334;SDS011;32051;48.882;9.210;2023-05-07T00:12:50;2.45;;;2.25;;
46334;SDS011;32051;48.882;9.210;2023-05-07T00:15:16;2.28;;;2.10;;
46334;SDS011;32051;48.882;9.210;2023-05-07T00:17:42;3.00;;;2.13;;
46334;SDS011;32051;48.882;9.210;2023-05-07T00:20:08;2.10;;;2.00;;
46334;SDS011;32051;48.882;9.210;2023-05-07T00:22:34;6.10;;;2.00;;
46334;SDS011;32051;48.882;9.210;2023-05-07T00:25:01;2.85;;;1.90;;
46334;SDS011;32051;48.882;9.210;2023-05-07T00:27:27;3.40;;;2.20;;
46334;SDS011;32051;48.882;9.210;2023-05-07T00:29:53;3.33;;;1.73;;
46334;SDS011;32051;48.882;9.210;2023-05-07T00:32:19;4.50;;;2.10;;
46334;SDS011;32051;48.882;9.210;2023-05-07T00:34:45;4.45;;;2.17;;
46334;SDS011;32051;48.882;9.210;2023-05-07T00:37:11;5.57;;;2.58;;
46334;SDS011;32051;48.882;9.210;2023-05-07T00:39:37;3.45;;;2.15;;
46334;SDS011;32051;48.882;9.210;2023-05-07T00:42:03;1.90;;;1.80;;
46334;SDS011;32051;48.882;9.210;2023-05-07T00:44:29;4.45;;;2.22;;
46334;SDS011;32051;48.882;9.210;2023-05-07T00:46:56;5.75;;;1.65;;
46334;SDS011;32051;48.882;9.210;2023-05-07T00:49:25;4.20;;;2.80;;
46334;SDS011;32051;48.882;9.210;2023-05-07T00:51:56;5.68;;;2.47;;
46334;SDS011;32051;48.882;9.210;2023-05-07T00:54:24;5.22;;;2.00;;
46334;SDS011;32051;48.882;9.210;2023-05-07T00:56:50;2.58;;;2.38;;
46334;SDS011;32051;48.882;9.210;2023-05-07T00:59:16;4.35;;;2.08;;
46334;SDS011;32051;48.882;9.210;2023-05-07T01:01:42;2.05;;;1.92;;
46334;SDS011;32051;48.882;9.210;2023-05-07T01:04:08;2.03;;;1.88;;
46334;SDS011;32051;48.882;9.210;2023-05-07T01:06:34;4.72;;;1.85;;
46334;SDS011;32051;48.882;9.210;2023-05-07T01:09:01;2.15;;;1.92;;
46334;SDS011;32051;48.882;9.210;2023-05-07T01:11:29;3.25;;;2.15;;
46334;SDS011;32051;48.882;9.210;2023-05-07T01:13:55;9.40;;;3.65;;
46334;SDS011;32051;48.882;9.210;2023-05-07T01:16:22;4.85;;;2.40;;
46334;SDS011;32051;48.882;9.210;2023-05-07T01:18:48;5.30;;;2.55;;
46334;SDS011;32051;48.882;9.210;2023-05-07T01:21:15;9.27;;;3.42;;
46334;SDS011;32051;48.882;9.210;2023-05-07T01:23:42;3.95;;;2.45;;
46334;SDS011;32051;48.882;9.210;2023-05-07T01:26:08;2.08;;;1.95;;
46334;SDS011;32051;48.882;9.210;2023-05-07T01:28:34;2.80;;;2.45;;
46334;SDS011;32051;48.882;9.210;2023-05-07T01:31:02;2.80;;;2.60;;
46334;SDS011;32051;48.882;9.210;2023-05-07T01:33:29;2.75;;;2.28;;
46334;SDS011;32051;48.882;9.210;2023-05-07T01:35:56;2.75;;;2.15;;
46334;SDS011;32051;48.882;9.210;2023-05-07T01:38:25;1.90;;;1.80;;
46334;SDS011;32051;48.882;9.210;2023-05-07T01:40:51;1.95;;;1.77;;
46334;SDS011;32051;48.882;9.210;2023-05-07T01:43:18;12.23;;;2.75;;
46334;SDS011;32051;48.882;9.210;2023-05-07T01:45:45;6.95;;;2.22;;
46334;SDS011;32051;48.882;9.210;2023-05-07T01:48:11;2.35;;;2.15;;
46334;SDS011;32051;48.882;9.210;2023-05-07T01:50:38;4.90;;;2.42;;
46334;SDS011;32051;48.882;9.210;2023-05-07T01:53:05;3.85;;;2.38;;
46334;SDS011;32051;48.882;9.210;2023-05-07T01:55:31;8.50;;;2.70;;
46334;SDS011;32051;48.882;9.210;2023-05-07T01:57:57;2.25;;;2.10;;
46334;SDS011;32051;48.882;9.210;2023-05-07T02:00:23;3.38;;;1.95;;
46334;SDS011;32051;48.882;9.210;2023-05-07T02:02:50;4.22;;;2.00;;
46334;SDS011;32051;48.882;9.210;2023-05-07T02:05:27;8.23;;;2.50;;
46334;SDS011;32051;48.882;9.210;2023-05-07T02:08:02;3.55;;;2.22;;
46334;SDS011;32051;48.882;9.210;2023-05-07T02:10:29;2.20;;;2.00;;
46334;SDS011;32051;48.882;9.210;2023-05-07T02:12:55;9.85;;;1.92;;
46334;SDS011;32051;48.882;9.210;2023-05-07T02:15:21;4.55;;;2.70;;
46334;SDS011;32051;48.882;9.210;2023-05-07T02:18:21;2.35;;;2.15;;
46334;SDS011;32051;48.882;9.210;2023-05-07T02:20:40;2.90;;;2.28;;
46334;SDS011;32051;48.882;9.210;2023-05-07T02:23:07;1.90;;;1.80;;
46334;SDS011;32051;48.882;9.210;2023-05-07T02:25:33;5.68;;;2.38;;
46334;SDS011;32051;48.882;9.210;2023-05-07T02:27:59;7.03;;;2.72;;
46334;SDS011;32051;48.882;9.210;2023-05-07T02:30:45;2.35;;;1.77;;
46334;SDS011;32051;48.882;9.210;2023-05-07T02:33:11;4.70;;;2.03;;
46334;SDS011;32051;48.882;9.210;2023-05-07T02:35:39;2.40;;;2.20;;
46334;SDS011;32051;48.882;9.210;2023-05-07T02:38:06;3.08;;;2.55;;
46334;SDS011;32051;48.882;9.210;2023-05-07T02:40:33;5.97;;;2.40;;
46334;SDS011;32051;48.882;9.210;2023-05-07T02:43:03;3.88;;;1.75;;
46334;SDS011;32051;48.882;9.210;2023-05-07T02:45:30;4.28;;;1.80;;
46334;SDS011;32051;48.882;9.210;2023-05-07T02:47:56;3.75;;;1.70;;
46334;SDS011;32051;48.882;9.210;2023-05-07T02:50:22;4.32;;;2.35;;
46334;SDS011;32051;48.882;9.210;2023-05-07T02:52:48;1.88;;;1.77;;
46334;SDS011;32051;48.882;9.210;2023-05-07T02:55:15;2.33;;;1.80;;
46334;SDS011;32051;48.882;9.210;2023-05-07T02:57:41;2.28;;;2.17;;
46334;SDS011;32051;48.882;9.210;2023-05-07T03:00:11;2.63;;;2.20;;
46334;SDS011;32051;48.882;9.210;2023-05-07T03:02:38;5.65;;;2.05;;
46334;SDS011;32051;48.882;9.210;2023-05-07T03:05:04;1.50;;;1.40;;
46334;SDS011;32051;48.882;9.210;2023-05-07T03:07:31;2.03;;;1.88;;
46334;SDS011;32051;48.882;9.210;2023-05-07T03:09:57;1.80;;;1.70;;
46334;SDS011;32051;48.882;9.210;2023-05-07T03:12:23;5.60;;;1.95;;
46334;SDS011;32051;48.882;9.210;2023-05-07T03:14:49;5.13;;;3.17;;
46334;SDS011;32051;48.882;9.210;2023-05-07T03:17:15;2.90;;;2.50;;
46334;SDS011;32051;48.882;9.210;2023-05-07T03:19:41;3.38;;;2.30;;
46334;SDS011;32051;48.882;9.210;2023-05-07T03:22:07;3.85;;;2.30;;
46334;SDS011;32051;48.882;9.210;2023-05-07T03:24:33;3.88;;;2.22;;
46334;SDS011;32051;48.882;9.210;2023-05-07T03:27:00;4.68;;;2.20;;
46334;SDS011;32051;48.882;9.210;2023-05-07T03:29:28;2.42;;;2.33;;
46334;SDS011;32051;48.882;9.210;2023-05-07T03:31:54;3.05;;;2.85;;
46334;SDS011;32051;48.882;9.210;2023-05-07T03:34:20;3.00;;;2.60;;
46334;SDS011;32051;48.882;9.210;2023-05-07T03:36:50;2.85;;;2.20;;
46334;SDS011;32051;48.882;9.210;2023-05-07T03:39:18;2.13;;;1.92;;
46334;SDS011;32051;48.882;9.210;2023-05-07T03:41:44;1.80;;;1.70;;
46334;SDS011;32051;48.882;9.210;2023-05-07T03:44:10;7.00;;;3.15;;
46334;SDS011;32051;48.882;9.210;2023-05-07T03:46:36;2.78;;;2.60;;
46334;SDS011;32051;48.882;9.210;2023-05-07T03:49:02;2.67;;;2.47;;
46334;SDS011;32051;48.882;9.210;2023-05-07T03:51:29;2.47;;;2.00;;
46334;SDS011;32051;48.882;9.210;2023-05-07T03:53:56;2.95;;;2.10;;
46334;SDS011;32051;48.882;9.210;2023-05-07T03:56:27;2.15;;;2.05;;
46334;SDS011;32051;48.882;9.210;2023-05-07T03:58:55;2.00;;;1.80;;
46334;SDS011;32051;48.882;9.210;2023-05-07T04:01:21;2.72;;;2.25;;
46334;SDS011;32051;48.882;9.210;2023-05-07T04:03:47;5.95;;;2.78;;
46334;SDS011;32051;48.882;9.210;2023-05-07T04:06:15;2.63;;;2.40;;
46334;SDS011;32051;48.882;9.210;2023-05-07T04:08:44;2.55;;;2.22;;
46334;SDS011;32051;48.882;9.210;2023-05-07T04:11:10;2.78;;;2.58;;
46334;SDS011;32051;48.882;9.210;2023-05-07T04:13:36;2.40;;;2.20;;
46334;SDS011;32051;48.882;9.210;2023-05-07T04:16:05;2.47;;;2.35;;
46334;SDS011;32051;48.882;9.210;2023-05-07T04:18:34;7.07;;;2.85;;
46334;SDS011;32051;48.882;9.210;2023-05-07T04:21:00;2.95;;;2.45;;
46334;SDS011;32051;48.882;9.210;2023-05-07T04:23:26;2.97;;;2.67;;
46334;SDS011;32051;48.882;9.210;2023-05-07T04:25:53;4.55;;;2.30;;
46334;SDS011;32051;48.882;9.210;2023-05-07T04:28:25;6.60;;;3.05;;
46334;SDS011;32051;48.882;9.210;2023-05-07T04:30:51;2.67;;;2.47;;
46334;SDS011;32051;48.882;9.210;2023-05-07T04:33:18;3.78;;;2.42;;
46334;SDS011;32051;48.882;9.210;2023-05-07T04:35:46;2.05;;;1.85;;
46334;SDS011;32051;48.882;9.210;2023-05-07T04:38:12;2.92;;;2.55;;
46334;SDS011;32051;48.882;9.210;2023-05-07T04:40:38;2.58;;;2.45;;
46334;SDS011;32051;48.882;9.210;2023-05-07T04:43:06;3.78;;;2.25;;
46334;SDS011;32051;48.882;9.210;2023-05-07T04:45:40;2.83;;;2.28;;
46334;SDS011;32051;48.882;9.210;2023-05-07T04:48:07;2.95;;;2.63;;
46334;SDS011;32051;48.882;9.210;2023-05-07T04:50:33;2.10;;;2.00;;
46334;SDS011;32051;48.882;9.210;2023-05-07T04:53:01;2.10;;;1.92;;
46334;SDS011;32051;48.882;9.210;2023-05-07T04:55:28;2.40;;;2.20;;
46334;SDS011;32051;48.882;9.210;2023-05-07T04:57:54;2.22;;;2.03;;
46334;SDS011;32051;48.882;9.210;2023-05-07T05:00:21;7.40;;;2.30;;
46334;SDS011;32051;48.882;9.210;2023-05-07T05:02:49;5.78;;;1.80;;
46334;SDS011;32051;48.882;9.210;2023-05-07T05:05:18;1.90;;;1.80;;
46334;SDS011;32051;48.882;9.210;2023-05-07T05:07:46;3.72;;;1.90;;
46334;SDS011;32051;48.882;9.210;2023-05-07T05:10:12;3.38;;;2.83;;
46334;SDS011;32051;48.882;9.210;2023-05-07T05:12:40;1.92;;;1.83;;
46334;SDS011;32051;48.882;9.210;2023-05-07T05:15:06;7.43;;;2.15;;
46334;SDS011;32051;48.882;9.210;2023-05-07T05:17:33;4.78;;;2.10;;
46334;SDS011;32051;48.882;9.210;2023-05-07T05:20:02;2.50;;;1.70;;
46334;SDS011;32051;48.882;9.210;2023-05-07T05:22:29;6.57;;;2.22;;
46334;SDS011;32051;48.882;9.210;2023-05-07T05:24:57;2.85;;;1.70;;
46334;SDS011;32051;48.882;9.210;2023-05-07T05:27:24;1.90;;;1.67;;
46334;SDS011;32051;48.882;9.210;2023-05-07T05:29:50;2.50;;;2.30;;
46334;SDS011;32051;48.882;9.210;2023-05-07T05:32:16;2.50;;;2.30;;
46334;SDS011;32051;48.882;9.210;2023-05-07T05:34:43;4.38;;;2.38;;
46334;SDS011;32051;48.882;9.210;2023-05-07T05:37:10;1.98;;;1.88;;
46334;SDS011;32051;48.882;9.210;2023-05-07T05:39:36;5.57;;;2.25;;
46334;SDS011;32051;48.882;9.210;2023-05-07T05:42:03;4.22;;;1.85;;
46334;SDS011;32051;48.882;9.210;2023-05-07T05:44:32;2.50;;;1.90;;
46334;SDS011;32051;48.882;9.210;2023-05-07T05:46:58;6.85;;;1.67;;
46334;SDS011;32051;48.882;9.210;2023-05-07T05:49:25;1.77;;;1.67;;
46334;SDS011;32051;48.882;9.210;2023-05-07T05:51:51;2.70;;;2.30;;
46334;SDS011;32051;48.882;9.210;2023-05-07T05:54:18;1.70;;;1.60;;
46334;SDS011;32051;48.882;9.210;2023-05-07T05:56:44;2.10;;;1.83;;
46334;SDS011;32051;48.882;9.210;2023-05-07T05:59:10;1.98;;;1.77;;
46334;SDS011;32051;48.882;9.210;2023-05-07T06:01:37;1.50;;;1.40;;
46334;SDS011;32051;48.882;9.210;2023-05-07T06:04:04;1.38;;;1.27;;
46334;SDS011;32051;48.882;9.210;2023-05-07T06:06:30;3.25;;;2.00;;
46334;SDS011;32051;48.882;9.210;2023-05-07T06:08:57;1.95;;;1.85;;
46334;SDS011;32051;48.882;9.210;2023-05-07T06:11:31;1.80;;;1.38;;
46334;SDS011;32051;48.882;9.210;2023-05-07T06:13:57;1.10;;;1.10;;
46334;SDS011;32051;48.882;9.210;2023-05-07T06:16:24;3.30;;;1.33;;
46334;SDS011;32051;48.882;9.210;2023-05-07T06:18:50;2.08;;;1.38;;
46334;SDS011;32051;48.882;9.210;2023-05-07T06:21:17;1.77;;;1.17;;
46334;SDS011;32051;48.882;9.210;2023-05-07T06:23:43;2.03;;;1.40;;
46334;SDS011;32051;48.882;9.210;2023-05-07T06:26:10;3.13;;;1.70;;
46334;SDS011;32051;48.882;9.210;2023-05-07T06:28:40;3.38;;;2.10;;
46334;SDS011;32051;48.882;9.210;2023-05-07T06:31:13;1.48;;;1.38;;
46334;SDS011;32051;48.882;9.210;2023-05-07T06:33:41;2.28;;;1.55;;
46334;SDS011;32051;48.882;9.210;2023-05-07T06:36:07;4.82;;;1.70;;
46334;SDS011;32051;48.882;9.210;2023-05-07T06:38:35;1.77;;;1.48;;
46334;SDS011;32051;48.882;9.210;2023-05-07T06:41:01;2.80;;;1.88;;
46334;SDS011;32051;48.882;9.210;2023-05-07T06:43:27;1.20;;;1.10;;
46334;SDS011;32051;48.882;9.210;2023-05-07T06:46:01;1.55;;;1.45;;
46334;SDS011;32051;48.882;9.210;2023-05-07T06:48:27;1.95;;;1.85;;
46334;SDS011;32051;48.882;9.210;2023-05-07T06:51:00;4.22;;;1.42;;
46334;SDS011;32051;48.882;9.210;2023-05-07T06:53:28;2.40;;;1.88;;
46334;SDS011;32051;48.882;9.210;2023-05-07T06:55:56;1.10;;;1.10;;
46334;SDS011;32051;48.882;9.210;2023-05-07T06:58:22;4.53;;;1.15;;
46334;SDS011;32051;48.882;9.210;2023-05-07T07:00:48;1.30;;;1.20;;
46334;SDS011;32051;48.882;9.210;2023-05-07T07:03:15;1.20;;;1.10;;
46334;SDS011;32051;48.882;9.210;2023-05-07T07:05:41;1.40;;;1.30;;
46334;SDS011;32051;48.882;9.210;2023-05-07T07:08:07;2.65;;;1.30;;
46334;SDS011;32051;48.882;9.210;2023-05-07T07:10:33;1.30;;;1.20;;
46334;SDS011;32051;48.882;9.210;2023-05-07T07:13:00;1.65;;;1.35;;
46334;SDS011;32051;48.882;9.210;2023-05-07T07:15:27;1.52;;;1.10;;
46334;SDS011;32051;48.882;9.210;2023-05-07T07:17:54;6.80;;;2.15;;
46334;SDS011;32051;48.882;9.210;2023-05-07T07:20:22;4.05;;;1.35;;
46334;SDS011;32051;48.882;9.210;2023-05-07T07:22:48;4.43;;;1.58;;
46334;SDS011;32051;48.882;9.210;2023-05-07T07:25:15;2.10;;;1.40;;
46334;SDS011;32051;48.882;9.210;2023-05-07T07:27:41;1.90;;;1.73;;
46334;SDS011;32051;48.882;9.210;2023-05-07T07:30:08;1.60;;;1.50;;
46334;SDS011;32051;48.882;9.210;2023-05-07T07:32:36;3.55;;;1.33;;
46334;SDS011;32051;48.882;9.210;2023-05-07T07:35:03;16.60;;;1.52;;
46334;SDS011;32051;48.882;9.210;2023-05-07T07:37:30;1.42;;;0.98;;
46334;SDS011;32051;48.882;9.210;2023-05-07T07:39:56;1.27;;;1.17;;
46334;SDS011;32051;48.882;9.210;2023-05-07T07:42:22;1.70;;;1.35;;
46334;SDS011;32051;48.882;9.210;2023-05-07T07:44:49;1.55;;;1.35;;
46334;SDS011;32051;48.882;9.210;2023-05-07T07:47:17;1.48;;;1.40;;
46334;SDS011;32051;48.882;9.210;2023-05-07T07:49:43;1.85;;;1.75;;
46334;SDS011;32051;48.882;9.210;2023-05-07T07:52:09;1.95;;;1.80;;
46334;SDS011;32051;48.882;9.210;2023-05-07T07:54:36;1.08;;;1.05;;
46334;SDS011;32051;48.882;9.210;2023-05-07T07:57:05;2.60;;;1.70;;
46334;SDS011;32051;48.882;9.210;2023-05-07T07:59:33;1.85;;;1.38;;
46334;SDS011;32051;48.882;9.210;2023-05-07T08:01:58;3.00;;;1.77;;
46334;SDS011;32051;48.882;9.210;2023-05-07T08:04:26;1.48;;;1.38;;
46334;SDS011;32051;48.882;9.210;2023-05-07T08:06:54;1.45;;;1.20;;
46334;SDS011;32051;48.882;9.210;2023-05-07T08:09:21;4.43;;;1.45;;
46334;SDS011;32051;48.882;9.210;2023-05-07T08:11:48;4.03;;;1.17;;
46334;SDS011;32051;48.882;9.210;2023-05-07T08:14:14;5.65;;;1.80;;
46334;SDS011;32051;48.882;9.210;2023-05-07T08:16:43;3.72;;;1.27;;
46334;SDS011;32051;48.882;9.210;2023-05-07T08:19:09;1.13;;;1.13;;
46334;SDS011;32051;48.882;9.210;2023-05-07T08:21:38;5.38;;;1.50;;
46334;SDS011;32051;48.882;9.210;2023-05-07T08:24:04;1.65;;;1.55;;
46334;SDS011;32051;48.882;9.210;2023-05-07T08:26:30;1.20;;;1.10;;
46334;SDS011;32051;48.882;9.210;2023-05-07T08:28:56;6.18;;;1.30;;
46334;SDS011;32051;48.882;9.210;2023-05-07T08:31:21;1.50;;;1.40;;
46334;SDS011;32051;48.882;9.210;2023-05-07T08:33:47;2.55;;;1.30;;
46334;SDS011;32051;48.882;9.210;2023-05-07T08:36:13;1.58;;;1.50;;
46334;SDS011;32051;48.882;9.210;2023-05-07T08:38:39;5.05;;;1.20;;
46334;SDS011;32051;48.882;9.210;2023-05-07T08:41:09;2.08;;;1.73;;
46334;SDS011;32051;48.882;9.210;2023-05-07T08:43:36;1.75;;;1.65;;
46334;SDS011;32051;48.882;9.210;2023-05-07T08:46:05;1.65;;;1.42;;
46334;SDS011;32051;48.882;9.210;2023-05-07T08:48:36;1.60;;;1.33;;
46334;SDS011;32051;48.882;9.210;2023-05-07T08:51:08;1.88;;;1.00;;
46334;SDS011;32051;48.882;9.210;2023-05-07T08:53:34;2.45;;;1.75;;
46334;SDS011;32051;48.882;9.210;2023-05-07T08:56:01;2.55;;;1.77;;
46334;SDS011;32051;48.882;9.210;2023-05-07T08:58:29;2.35;;;1.33;;
46334;SDS011;32051;48.882;9.210;2023-05-07T09:00:55;1.20;;;1.20;;
46334;SDS011;32051;48.882;9.210;2023-05-07T09:03:22;3.78;;;1.50;;
46334;SDS011;32051;48.882;9.210;2023-05-07T09:05:50;9.48;;;1.63;;
46334;SDS011;32051;48.882;9.210;2023-05-07T09:08:18;1.13;;;1.13;;
46334;SDS011;32051;48.882;9.210;2023-05-07T09:10:46;2.45;;;1.63;;
46334;SDS011;32051;48.882;9.210;2023-05-07T09:13:13;1.92;;;1.80;;
46334;SDS011;32051;48.882;9.210;2023-05-07T09:15:40;1.38;;;1.27;;
46334;SDS011;32051;48.882;9.210;2023-05-07T09:18:06;1.77;;;1.67;;
46334;SDS011;32051;48.882;9.210;2023-05-07T09:20:33;1.50;;;1.40;;
46334;SDS011;32051;48.882;9.210;2023-05-07T09:23:01;2.63;;;1.40;;
46334;SDS011;32051;48.882;9.210;2023-05-07T09:25:33;2.25;;;2.08;;
46334;SDS011;32051;48.882;9.210;2023-05-07T09:28:05;7.13;;;1.30;;
46334;SDS011;32051;48.882;9.210;2023-05-07T09:30:33;1.77;;;1.52;;
46334;SDS011;32051;48.882;9.210;2023-05-07T09:33:03;2.13;;;1.98;;
46334;SDS011;32051;48.882;9.210;2023-05-07T09:35:31;2.17;;;1.30;;
46334;SDS011;32051;48.882;9.210;2023-05-07T09:38:02;2.85;;;1.25;;
46334;SDS011;32051;48.882;9.210;2023-05-07T09:40:30;1.33;;;1.23;;
46334;SDS011;32051;48.882;9.210;2023-05-07T09:43:10;1.05;;;1.00;;
46334;SDS011;32051;48.882;9.210;2023-05-07T09:45:41;1.30;;;1.20;;
46334;SDS011;32051;48.882;9.210;2023-05-07T09:48:08;2.28;;;1.50;;
46334;SDS011;32051;48.882;9.210;2023-05-07T09:50:40;5.25;;;1.38;;
46334;SDS011;32051;48.882;9.210;2023-05-07T09:53:17;5.00;;;1.40;;
46334;SDS011;32051;48.882;9.210;2023-05-07T09:55:43;1.88;;;1.67;;
46334;SDS011;32051;48.882;9.210;2023-05-07T09:58:11;1.95;;;1.50;;
46334;SDS011;32051;48.882;9.210;2023-05-07T10:00:37;4.40;;;1.35;;
46334;SDS011;32051;48.882;9.210;2023-05-07T10:03:09;4.68;;;2.08;;
46334;SDS011;32051;48.882;9.210;2023-05-07T10:05:44;3.72;;;1.55;;
46334;SDS011;32051;48.882;9.210;2023-05-07T10:08:12;1.95;;;1.30;;
46334;SDS011;32051;48.882;9.210;2023-05-07T10:10:40;4.72;;;1.48;;
46334;SDS011;32051;48.882;9.210;2023-05-07T10:13:09;2.38;;;1.10;;
46334;SDS011;32051;48.882;9.210;2023-05-07T10:15:38;3.45;;;1.17;;
46334;SDS011;32051;48.882;9.210;2023-05-07T10:18:04;1.25;;;1.15;;
46334;SDS011;32051;48.882;9.210;2023-05-07T10:20:32;1.58;;;1.23;;
46334;SDS011;32051;48.882;9.210;2023-05-07T10:22:59;15.32;;;2.15;;
46334;SDS011;32051;48.882;9.210;2023-05-07T10:25:35;2.78;;;1.83;;
46334;SDS011;32051;48.882;9.210;2023-05-07T10:28:08;2.17;;;1.45;;
46334;SDS011;32051;48.882;9.210;2023-05-07T10:30:48;1.50;;;1.40;;
46334;SDS011;32051;48.882;9.210;2023-05-07T10:33:32;4.60;;;1.98;;
46334;SDS011;32051;48.882;9.210;2023-05-07T10:36:00;1.30;;;1.20;;
46334;SDS011;32051;48.882;9.210;2023-05-07T10:38:30;3.05;;;1.63;;
46334;SDS011;32051;48.882;9.210;2023-05-07T10:40:58;1.52;;;1.27;;
46334;SDS011;32051;48.882;9.210;2023-05-07T10:43:24;1.33;;;1.20;;
46334;SDS011;32051;48.882;9.210;2023-05-07T10:46:13;2.70;;;1.33;;
46334;SDS011;32051;48.882;9.210;2023-05-07T10:51:38;1.45;;;1.20;;
46334;SDS011;32051;48.882;9.210;2023-05-07T10:54:18;1.23;;;1.10;;
46334;SDS011;32051;48.882;9.210;2023-05-07T10:56:53;1.67;;;0.93;;
46334;SDS011;32051;48.882;9.210;2023-05-07T10:59:30;3.20;;;1.20;;
46334;SDS011;32051;48.882;9.210;2023-05-07T11:02:03;1.35;;;1.00;;
46334;SDS011;32051;48.882;9.210;2023-05-07T11:04:46;2.30;;;1.05;;
46334;SDS011;32051;48.882;9.210;2023-05-07T11:07:59;1.52;;;1.13;;
46334;SDS011;32051;48.882;9.210;2023-05-07T11:10:55;5.30;;;1.00;;
46334;SDS011;32051;48.882;9.210;2023-05-07T11:13:53;2.72;;;0.93;;
46334;SDS011;32051;48.882;9.210;2023-05-07T11:16:39;0.77;;;0.73;;
46334;SDS011;32051;48.882;9.210;2023-05-07T11:19:17;2.15;;;1.20;;
46334;SDS011;32051;48.882;9.210;2023-05-07T11:25:17;1.30;;;1.10;;
46334;SDS011;32051;48.882;9.210;2023-05-07T11:27:52;2.85;;;1.13;;
46334;SDS011;32051;48.882;9.210;2023-05-07T11:30:18;3.03;;;1.02;;
46334;SDS011;32051;48.882;9.210;2023-05-07T11:32:47;2.30;;;1.00;;
46334;SDS011;32051;48.882;9.210;2023-05-07T11:35:15;7.22;;;0.90;;
46334;SDS011;32051;48.882;9.210;2023-05-07T11:37:42;1.58;;;1.15;;
46334;SDS011;32051;48.882;9.210;2023-05-07T11:40:11;2.80;;;0.80;;
46334;SDS011;32051;48.882;9.210;2023-05-07T11:42:39;2.40;;;1.08;;
46334;SDS011;32051;48.882;9.210;2023-05-07T11:45:06;1.95;;;0.85;;
46334;SDS011;32051;48.882;9.210;2023-05-07T11:47:33;2.03;;;1.58;;
46334;SDS011;32051;48.882;9.210;2023-05-07T11:50:06;2.65;;;0.82;;
46334;SDS011;32051;48.882;9.210;2023-05-07T11:52:32;1.15;;;1.10;;
46334;SDS011;32051;48.882;9.210;2023-05-07T11:55:01;1.95;;;1.27;;
46334;SDS011;32051;48.882;9.210;2023-05-07T11:57:28;4.05;;;0.80;;
46334;SDS011;32051;48.882;9.210;2023-05-07T11:59:58;3.17;;;1.00;;
46334;SDS011;32051;48.882;9.210;2023-05-07T12:02:24;0.90;;;0.82;;
46334;SDS011;32051;48.882;9.210;2023-05-07T12:04:51;1.15;;;0.93;;
46334;SDS011;32051;48.882;9.210;2023-05-07T12:07:17;1.13;;;0.90;;
46334;SDS011;32051;48.882;9.210;2023-05-07T12:09:44;1.17;;;0.73;;
46334;SDS011;32051;48.882;9.210;2023-05-07T12:12:11;0.90;;;0.90;;
46334;SDS011;32051;48.882;9.210;2023-05-07T12:14:39;2.25;;;0.98;;
46334;SDS011;32051;48.882;9.210;2023-05-07T12:17:06;0.93;;;0.80;;
46334;SDS011;32051;48.882;9.210;2023-05-07T12:19:33;1.27;;;0.90;;
46334;SDS011;32051;48.882;9.210;2023-05-07T12:21:59;1.00;;;1.00;;
46334;SDS011;32051;48.882;9.210;2023-05-07T12:24:25;6.72;;;1.15;;
46334;SDS011;32051;48.882;9.210;2023-05-07T12:26:52;3.90;;;1.05;;
46334;SDS011;32051;48.882;9.210;2023-05-07T12:29:21;5.75;;;1.08;;
46334;SDS011;32051;48.882;9.210;2023-05-07T12:31:47;0.77;;;0.77;;
46334;SDS011;32051;48.882;9.210;2023-05-07T12:34:15;1.23;;;0.90;;
46334;SDS011;32051;48.882;9.210;2023-05-07T12:36:41;1.40;;;1.05;;
46334;SDS011;32051;48.882;9.210;2023-05-07T12:39:08;0.90;;;0.73;;
46334;SDS011;32051;48.882;9.210;2023-05-07T12:41:53;0.70;;;0.70;;
46334;SDS011;32051;48.882;9.210;2023-05-07T12:44:23;1.40;;;1.23;;
46334;SDS011;32051;48.882;9.210;2023-05-07T12:46:49;5.65;;;1.23;;
46334;SDS011;32051;48.882;9.210;2023-05-07T12:49:15;8.13;;;0.95;;
46334;SDS011;32051;48.882;9.210;2023-05-07T12:51:43;4.53;;;1.17;;
46334;SDS011;32051;48.882;9.210;2023-05-07T12:54:09;1.17;;;1.10;;
46334;SDS011;32051;48.882;9.210;2023-05-07T12:56:36;3.42;;;0.90;;
46334;SDS011;32051;48.882;9.210;2023-05-07T12:59:04;2.15;;;1.67;;
46334;SDS011;32051;48.882;9.210;2023-05-07T13:01:30;2.10;;;1.25;;
46334;SDS011;32051;48.882;9.210;2023-05-07T13:04:05;1.80;;;1.23;;
46334;SDS011;32051;48.882;9.210;2023-05-07T13:06:30;4.15;;;0.90;;
46334;SDS011;32051;48.882;9.210;2023-05-07T13:08:56;2.33;;;1.52;;
46334;SDS011;32051;48.882;9.210;2023-05-07T13:11:22;2.13;;;1.75;;
46334;SDS011;32051;48.882;9.210;2023-05-07T13:13:47;1.98;;;1.80;;
46334;SDS011;32051;48.882;9.210;2023-05-07T13:16:13;2.00;;;1.60;;
46334;SDS011;32051;48.882;9.210;2023-05-07T13:18:39;8.48;;;1.80;;
46334;SDS011;32051;48.882;9.210;2023-05-07T13:21:06;5.68;;;3.75;;
46334;SDS011;32051;48.882;9.210;2023-05-07T13:23:32;3.92;;;2.83;;
46334;SDS011;32051;48.882;9.210;2023-05-07T13:25:58;6.80;;;1.98;;
46334;SDS011;32051;48.882;9.210;2023-05-07T13:28:24;3.03;;;1.10;;
46334;SDS011;32051;48.882;9.210;2023-05-07T13:30:50;1.30;;;0.93;;
46334;SDS011;32051;48.882;9.210;2023-05-07T13:33:17;1.77;;;1.02;;
46334;SDS011;32051;48.882;9.210;2023-05-07T13:35:43;0.75;;;0.75;;
46334;SDS011;32051;48.882;9.210;2023-05-07T13:38:09;0.80;;;0.70;;
46334;SDS011;32051;48.882;9.210;2023-05-07T13:40:35;1.92;;;1.15;;
46334;SDS011;32051;48.882;9.210;2023-05-07T13:43:01;0.95;;;0.95;;
46334;SDS011;32051;48.882;9.210;2023-05-07T13:45:28;7.00;;;0.90;;
46334;SDS011;32051;48.882;9.210;2023-05-07T13:47:54;4.88;;;0.73;;
46334;SDS011;32051;48.882;9.210;2023-05-07T13:50:21;1.38;;;0.60;;
46334;SDS011;32051;48.882;9.210;2023-05-07T13:52:47;0.85;;;0.75;;
46334;SDS011;32051;48.882;9.210;2023-05-07T13:55:18;0.60;;;0.60;;
46334;SDS011;32051;48.882;9.210;2023-05-07T13:57:45;0.98;;;0.90;;
46334;SDS011;32051;48.882;9.210;2023-05-07T14:00:11;1.45;;;0.82;;
46334;SDS011;32051;48.882;9.210;2023-05-07T14:02:40;1.27;;;1.17;;
46334;SDS011;32051;48.882;9.210;2023-05-07T14:05:06;5.93;;;0.60;;
46334;SDS011;32051;48.882;9.210;2023-05-07T14:07:34;1.05;;;0.80;;
46334;SDS011;32051;48.882;9.210;2023-05-07T14:10:00;0.73;;;0.50;;
46334;SDS011;32051;48.882;9.210;2023-05-07T14:12:26;1.52;;;0.30;;
46334;SDS011;32051;48.882;9.210;2023-05-07T14:14:52;0.75;;;0.75;;
46334;SDS011;32051;48.882;9.210;2023-05-07T14:17:20;0.50;;;0.50;;
46334;SDS011;32051;48.882;9.210;2023-05-07T14:19:48;2.72;;;0.65;;
46334;SDS011;32051;48.882;9.210;2023-05-07T14:22:14;0.88;;;0.55;;
46334;SDS011;32051;48.882;9.210;2023-05-07T14:24:40;1.52;;;0.60;;
46334;SDS011;32051;48.882;9.210;2023-05-07T14:27:06;1.50;;;0.73;;
46334;SDS011;32051;48.882;9.210;2023-05-07T14:29:32;1.42;;;1.20;;
46334;SDS011;32051;48.882;9.210;2023-05-07T14:32:00;2.63;;;0.80;;
46334;SDS011;32051;48.882;9.210;2023-05-07T14:34:27;2.55;;;0.90;;
46334;SDS011;32051;48.882;9.210;2023-05-07T14:36:53;1.45;;;0.98;;
46334;SDS011;32051;48.882;9.210;2023-05-07T14:39:19;1.38;;;1.00;;
46334;SDS011;32051;48.882;9.210;2023-05-07T14:41:45;0.77;;;0.77;;
46334;SDS011;32051;48.882;9.210;2023-05-07T14:44:11;9.07;;;5.03;;
46334;SDS011;32051;48.882;9.210;2023-05-07T14:46:37;3.03;;;2.22;;
46334;SDS011;32051;48.882;9.210;2023-05-07T14:49:03;2.15;;;1.88;;
46334;SDS011;32051;48.882;9.210;2023-05-07T14:51:29;3.20;;;2.25;;
46334;SDS011;32051;48.882;9.210;2023-05-07T14:53:55;3.65;;;1.70;;
46334;SDS011;32051;48.882;9.210;2023-05-07T14:56:21;2.13;;;1.30;;
46334;SDS011;32051;48.882;9.210;2023-05-07T14:58:48;1.88;;;1.77;;